Latest Coastal Weather Observations for Gannett Cay

IDQ60701

Issued at 12:01 am EST Monday 31 August 2015 (issued every 10 minutes, with the page automatically refreshed every 10 minutes)

About coastal observations | Map of coastal stations | Coastal observations for QLD | Marine services | Other Formats
Station Details ID: 200831 Name: GANNET CAY Lat: -21.98 Lon: 152.47 Height: 2.3 m
Data from the previous 72 hours. | See also: Recent months for locations in Queensland
Date/Time
EST
Temp

°C
Wind Pressure Rain
since 9am
mm
Weather Cloud Vis
km
Sea
Height
m
Swell
Dir
 
Speed
knots
Gust
knots
hPa Trend Height
m
Period
s
Dir
31/12:00am 21.4 SW 8 9 1016.0 - - - - - - - - -
 
Date/Time
EST
Temp

°C
Wind Pressure Rain
since 9am
mm
Weather Cloud Vis
km
Sea
Height
m
Swell
Dir
 
Speed
knots
Gust
knots
hPa Trend Height
m
Period
s
Dir
30/11:30pm 21.3 SW 8 9 1016.1 - - - - - - - - -
30/11:00pm 21.2 SW 8 10 1016.1 - - - - - - - - -
30/10:30pm 21.3 SSW 9 11 1016.3 - - - - - - - - -
30/10:00pm 21.4 SSW 9 11 1016.2 - - - - - - - - -
30/09:30pm 21.4 S 9 11 1016.2 - - - - - - - - -
30/09:00pm 21.4 S 9 10 1016.0 - - - - - - - - -
30/08:30pm 21.7 S 9 10 1015.8 - - - - - - - - -
30/08:00pm 21.5 S 11 12 1015.5 - - - - - - - - -
30/07:30pm 21.6 S 10 11 1015.4 - - - - - - - - -
30/07:00pm 21.7 S 10 11 1015.1 - - - - - - - - -
30/06:30pm 21.9 S 11 13 1014.9 - - - - - - - - -
30/06:00pm 22.0 SSW 11 12 1014.4 - - - - - - - - -
30/05:30pm 22.0 SSW 10 11 1014.3 - - - - - - - - -
30/05:00pm 21.8 S 7 9 1014.0 - - - - - - - - -
30/04:30pm 22.2 S 6 7 1014.0 - - - - - - - - -
30/04:00pm 22.3 S 7 8 1014.0 - - - - - - - - -
30/03:30pm 23.3 S 5 5 1014.2 - - - - - - - - -
30/03:00pm 22.9 SSE 5 7 1013.9 - - - - - - - - -
30/02:30pm 23.7 E 5 6 1014.2 - - - - - - - - -
30/02:00pm 22.6 E 6 6 1014.4 - - - - - - - - -
30/01:30pm 22.6 ESE 7 9 1014.8 - - - - - - - - -
30/01:00pm 22.2 SSE 12 14 1015.1 - - - - - - - - -
30/12:30pm 21.7 S 16 18 1015.8 - - - - - - - - -
30/12:00pm 21.9 S 15 17 1016.3 - - - - - - - - -
30/11:30am 22.2 S 6 7 1016.9 - - - - - - - - -
30/11:00am 22.0 S 5 7 1017.0 - - - - - - - - -
30/10:30am 22.2 SSW 6 8 1017.6 - - - - - - - - -
30/10:00am 22.4 SSE 4 5 1017.4 - - - - - - - - -
30/09:30am 23.1 CALM 0 1 1017.5 - - - - - - - - -
30/09:00am 23.6 CALM 0 1 1017.2 - - - - - - - - -
30/08:30am 23.6 CALM 0 0 1017.1 - - - - - - - - -
30/08:00am 23.3 ENE 2 3 1016.9 - - - - - - - - -
30/07:30am 22.2 E 1 4 1016.8 - - - - - - - - -
30/07:00am 21.5 SE 4 5 1016.5 - - - - - - - - -
30/06:30am 21.5 NE 1 4 1016.4 - - - - - - - - -
30/06:00am 21.2 NE 6 8 1016.0 - - - - - - - - -
30/05:30am 21.5 N 7 8 1016.0 - - - - - - - - -
30/05:00am 20.6 NNE 8 10 1015.7 - - - - - - - - -
30/04:30am 21.0 N 12 15 1015.6 - - - - - - - - -
30/04:00am 21.8 N 6 7 1015.5 - - - - - - - - -
30/03:30am 21.8 ENE 7 11 1015.6 - - - - - - - - -
30/03:00am 22.4 ENE 3 4 1015.7 - - - - - - - - -
30/02:30am 22.4 ENE 4 5 1016.1 - - - - - - - - -
30/02:00am 22.5 ENE 4 5 1016.1 - - - - - - - - -
30/01:30am 22.5 NE 4 5 1016.7 - - - - - - - - -
30/01:00am 22.4 NE 4 5 1017.1 - - - - - - - - -
30/12:30am 22.4 NE 4 5 1017.5 - - - - - - - - -
30/12:00am 22.3 ENE 6 8 1017.4 - - - - - - - - -
 
Date/Time
EST
Temp

°C
Wind Pressure Rain
since 9am
mm
Weather Cloud Vis
km
Sea
Height
m
Swell
Dir
 
Speed
knots
Gust
knots
hPa Trend Height
m
Period
s
Dir
29/11:30pm 22.3 NE 8 9 1017.5 - - - - - - - - -
29/11:00pm 22.4 NE 9 10 1017.5 - - - - - - - - -
29/10:30pm 22.4 NE 9 10 1017.6 - - - - - - - - -
29/10:00pm 22.4 NE 8 9 1017.8 - - - - - - - - -
29/09:30pm 22.3 ENE 5 5 1018.0 - - - - - - - - -
29/09:00pm 22.5 ENE 8 9 1018.0 - - - - - - - - -
29/08:30pm 22.4 ENE 5 5 1018.2 - - - - - - - - -
29/08:00pm 22.4 E 5 7 1018.2 - - - - - - - - -
29/07:30pm 22.4 E 8 9 1018.0 - - - - - - - - -
29/07:00pm 22.2 E 8 9 1017.7 - - - - - - - - -
29/06:30pm 22.4 E 8 9 1017.6 - - - - - - - - -
29/06:00pm 22.4 ESE 8 9 1017.3 - - - - - - - - -
29/05:30pm 22.7 ESE 9 9 1017.1 - - - - - - - - -
29/05:00pm 23.1 ESE 9 10 1016.9 - - - - - - - - -
29/04:30pm 23.2 E 8 9 1017.1 - - - - - - - - -
29/04:00pm 23.4 E 9 10 1016.8 - - - - - - - - -
29/03:30pm 23.4 E 9 11 1016.9 - - - - - - - - -
29/03:00pm 23.9 ESE 7 9 1017.1 - - - - - - - - -
29/02:30pm 23.6 E 7 8 1017.6 - - - - - - - - -
29/02:00pm 23.9 E 7 8 1017.9 - - - - - - - - -
29/01:30pm 23.4 E 7 9 1018.2 - - - - - - - - -
29/01:00pm 23.3 ENE 7 8 1018.5 - - - - - - - - -
29/12:30pm 23.4 E 6 7 1019.2 - - - - - - - - -
29/12:00pm 23.1 ENE 7 8 1019.4 - - - - - - - - -
29/11:30am 22.9 E 10 11 1019.8 - - - - - - - - -
29/11:00am 22.8 ENE 9 10 1020.1 - - - - - - - - -
29/10:30am 22.8 ENE 11 12 1020.6 - - - - - - - - -
29/10:00am 22.7 ENE 10 11 1020.6 - - - - - - - - -
29/09:30am 22.7 ENE 9 11 1020.9 - - - - - - - - -
29/09:00am 22.8 ENE 10 12 1020.8 - - - - - - - - -
29/08:30am 22.7 ENE 1 3 1020.7 - - - - - - - - -
29/08:00am 22.7 ENE 1 3 1020.3 - - - - - - - - -
29/07:30am 22.7 ENE 10 11 1020.2 - - - - - - - - -
29/07:00am 22.7 ENE 9 11 1019.7 - - - - - - - - -
29/06:30am 22.4 ENE 8 10 1019.4 - - - - - - - - -
29/06:00am 22.2 E 8 9 1019.1 - - - - - - - - -
29/05:30am 22.1 ENE 7 7 1018.9 - - - - - - - - -
29/05:00am 22.2 E 8 9 1018.5 - - - - - - - - -
29/04:30am 22.1 E 9 10 1018.5 - - - - - - - - -
29/04:00am 22.1 ENE 7 9 1018.5 - - - - - - - - -
29/03:30am 22.3 NE 8 10 1018.7 - - - - - - - - -
29/03:00am 22.2 NE 9 11 1018.7 - - - - - - - - -
29/02:30am 22.2 ENE 7 8 1019.1 - - - - - - - - -
29/02:00am 22.4 ENE 8 9 1019.2 - - - - - - - - -
29/01:30am 22.0 ENE 3 4 1019.6 - - - - - - - - -
29/01:00am 22.0 NE 4 4 1019.6 - - - - - - - - -
29/12:30am 21.9 NE 4 5 1019.9 - - - - - - - - -
29/12:00am 22.0 NE 4 5 1019.9 - - - - - - - - -
 
Date/Time
EST
Temp

°C
Wind Pressure Rain
since 9am
mm
Weather Cloud Vis
km
Sea
Height
m
Swell
Dir
 
Speed
knots
Gust
knots
hPa Trend Height
m
Period
s
Dir
28/11:30pm 22.1 ENE 5 5 1019.8 - - - - - - - - -
28/11:00pm 22.1 ENE 5 6 1019.9 - - - - - - - - -
28/10:30pm 22.0 E 4 5 1020.2 - - - - - - - - -
28/10:00pm 22.0 E 4 4 1020.2 - - - - - - - - -
28/09:30pm 22.0 ENE 4 5 1020.3 - - - - - - - - -
28/09:00pm 22.3 ESE 5 6 1020.1 - - - - - - - - -
28/08:30pm 22.2 SE 5 6 1020.3 - - - - - - - - -
28/08:00pm 22.5 SSE 4 5 1020.0 - - - - - - - - -
28/07:30pm 22.5 SSE 4 5 1019.9 - - - - - - - - -
28/07:00pm 22.5 SE 4 5 1019.3 - - - - - - - - -
28/06:30pm 22.4 ESE 5 6 1018.8 - - - - - - - - -
28/06:00pm 22.5 E 7 8 1018.2 - - - - - - - - -
28/05:30pm 22.8 E 7 8 1017.9 - - - - - - - - -
28/05:00pm 22.9 E 8 8 1017.7 - - - - - - - - -
28/04:30pm 23.2 E 6 7 1017.7 - - - - - - - - -
28/04:00pm 23.3 E 7 8 1017.5 - - - - - - - - -
28/03:30pm 23.1 CALM 0 2 1017.7 - - - - - - - - -
28/03:00pm 23.2 CALM 0 2 1017.6 - - - - - - - - -
28/02:30pm 22.9 CALM 0 7 1018.0 - - - - - - - - -
28/02:00pm 23.1 CALM 0 2 1018.0 - - - - - - - - -
28/01:30pm 23.0 ENE 9 11 1018.4 - - - - - - - - -
28/01:00pm 23.1 ENE 10 11 1018.6 - - - - - - - - -
28/12:30pm 23.1 ENE 10 11 1019.2 - - - - - - - - -
28/12:00pm 22.8 ENE 11 13 1019.3 - - - - - - - - -
28/11:30am 22.8 ENE 11 13 1019.8 - - - - - - - - -
28/11:00am 22.8 ENE 13 15 1020.1 - - - - - - - - -
28/10:30am 22.6 ENE 13 15 1020.6 - - - - - - - - -
28/10:00am 22.9 E 12 14 1020.7 - - - - - - - - -
28/09:30am 22.6 ENE 13 15 1020.5 - - - - - - - - -
28/09:00am 22.6 E 14 15 1020.5 - - - - - - - - -
28/08:30am 22.9 E 13 14 1020.6 - - - - - - - - -
28/08:00am 22.9 E 11 12 1020.3 - - - - - - - - -
28/07:30am 22.6 E 11 13 1020.1 - - - - - - - - -
28/07:00am 22.4 E 11 12 1019.7 - - - - - - - - -
28/06:30am 22.3 E 9 10 1019.8 - - - - - - - - -
28/06:00am 22.3 E 10 11 1019.4 - - - - - - - - -
28/05:30am 22.0 E 8 9 1019.4 - - - - - - - - -
28/05:00am 21.9 E 9 10 1018.9 - - - - - - - - -
28/04:30am 21.9 E 8 9 1018.7 - - - - - - - - -
28/04:00am 21.9 E 8 9 1018.5 - - - - - - - - -
28/03:30am 22.0 E 9 11 1018.5 - - - - - - - - -
28/03:00am 21.9 E 7 8 1018.6 - - - - - - - - -
28/02:30am 21.9 ESE 7 9 1018.9 - - - - - - - - -
28/02:00am 21.9 ESE 8 9 1018.9 - - - - - - - - -
28/01:30am 22.0 ESE 8 9 1019.4 - - - - - - - - -
28/01:00am 22.0 SE 8 9 1019.7 - - - - - - - - -
28/12:30am 22.0 ESE 5 6 1020.2 - - - - - - - - -

Other Formats:

Comma delimited format used in spreadsheet applications
http://www.bom.gov.au/fwo/IDQ60701/IDQ60701.94379.axf

JavaScript Object Notation format (JSON) in row-major order
http://www.bom.gov.au/fwo/IDQ60701/IDQ60701.94379.json